sensor_id;sensor_type;location;lat;lon;timestamp;P1;durP1;ratioP1;P2;durP2;ratioP2
297;SDS011;133;49.626;9.680;2023-07-16T00:01:58;9.97;;;7.17;;
297;SDS011;133;49.626;9.680;2023-07-16T00:04:24;9.63;;;7.13;;
297;SDS011;133;49.626;9.680;2023-07-16T00:06:49;7.90;;;6.53;;
297;SDS011;133;49.626;9.680;2023-07-16T00:09:15;9.73;;;5.23;;
297;SDS011;133;49.626;9.680;2023-07-16T00:11:41;6.40;;;5.93;;
297;SDS011;133;49.626;9.680;2023-07-16T00:14:07;8.47;;;5.23;;
297;SDS011;133;49.626;9.680;2023-07-16T00:16:32;5.60;;;5.00;;
297;SDS011;133;49.626;9.680;2023-07-16T00:18:58;5.67;;;5.10;;
297;SDS011;133;49.626;9.680;2023-07-16T00:21:24;5.90;;;5.60;;
297;SDS011;133;49.626;9.680;2023-07-16T00:23:49;7.00;;;6.07;;
297;SDS011;133;49.626;9.680;2023-07-16T00:26:15;6.17;;;5.37;;
297;SDS011;133;49.626;9.680;2023-07-16T00:28:41;7.07;;;5.73;;
297;SDS011;133;49.626;9.680;2023-07-16T00:31:07;8.73;;;6.23;;
297;SDS011;133;49.626;9.680;2023-07-16T00:33:32;7.60;;;6.47;;
297;SDS011;133;49.626;9.680;2023-07-16T00:35:58;5.20;;;4.90;;
297;SDS011;133;49.626;9.680;2023-07-16T00:38:24;7.27;;;5.33;;
297;SDS011;133;49.626;9.680;2023-07-16T00:40:49;7.30;;;5.70;;
297;SDS011;133;49.626;9.680;2023-07-16T00:43:15;13.53;;;5.77;;
297;SDS011;133;49.626;9.680;2023-07-16T00:45:41;6.20;;;5.90;;
297;SDS011;133;49.626;9.680;2023-07-16T00:48:09;5.67;;;5.37;;
297;SDS011;133;49.626;9.680;2023-07-16T00:50:36;7.50;;;4.80;;
297;SDS011;133;49.626;9.680;2023-07-16T00:53:05;6.57;;;6.20;;
297;SDS011;133;49.626;9.680;2023-07-16T00:55:31;10.03;;;5.97;;
297;SDS011;133;49.626;9.680;2023-07-16T00:58:01;6.37;;;5.93;;
297;SDS011;133;49.626;9.680;2023-07-16T01:00:30;6.93;;;5.90;;
297;SDS011;133;49.626;9.680;2023-07-16T01:03:01;11.83;;;6.53;;
297;SDS011;133;49.626;9.680;2023-07-16T01:05:28;6.20;;;5.90;;
297;SDS011;133;49.626;9.680;2023-07-16T01:08:02;6.47;;;6.03;;
297;SDS011;133;49.626;9.680;2023-07-16T01:10:31;6.63;;;5.77;;
297;SDS011;133;49.626;9.680;2023-07-16T01:12:58;6.87;;;6.00;;
297;SDS011;133;49.626;9.680;2023-07-16T01:15:24;5.47;;;5.17;;
297;SDS011;133;49.626;9.680;2023-07-16T01:17:50;5.73;;;5.43;;
297;SDS011;133;49.626;9.680;2023-07-16T01:20:16;6.07;;;5.60;;
297;SDS011;133;49.626;9.680;2023-07-16T01:31:04;6.23;;;5.30;;
297;SDS011;133;49.626;9.680;2023-07-16T01:33:31;6.07;;;5.00;;
297;SDS011;133;49.626;9.680;2023-07-16T01:35:58;4.83;;;4.53;;
297;SDS011;133;49.626;9.680;2023-07-16T01:38:24;5.77;;;4.43;;
297;SDS011;133;49.626;9.680;2023-07-16T01:40:50;4.90;;;4.50;;
297;SDS011;133;49.626;9.680;2023-07-16T01:43:16;5.53;;;4.63;;
297;SDS011;133;49.626;9.680;2023-07-16T01:45:42;5.40;;;4.60;;
297;SDS011;133;49.626;9.680;2023-07-16T01:50:51;6.27;;;4.20;;
297;SDS011;133;49.626;9.680;2023-07-16T01:53:16;4.40;;;4.10;;
297;SDS011;133;49.626;9.680;2023-07-16T01:55:42;7.23;;;4.00;;
297;SDS011;133;49.626;9.680;2023-07-16T01:58:08;4.87;;;4.07;;
297;SDS011;133;49.626;9.680;2023-07-16T02:00:34;8.90;;;4.10;;
297;SDS011;133;49.626;9.680;2023-07-16T02:03:00;6.30;;;3.87;;
297;SDS011;133;49.626;9.680;2023-07-16T02:05:26;4.00;;;3.80;;
297;SDS011;133;49.626;9.680;2023-07-16T02:07:52;5.20;;;3.40;;
297;SDS011;133;49.626;9.680;2023-07-16T02:10:17;5.63;;;4.27;;
297;SDS011;133;49.626;9.680;2023-07-16T02:12:43;3.87;;;3.70;;
297;SDS011;133;49.626;9.680;2023-07-16T02:15:09;3.60;;;3.50;;
297;SDS011;133;49.626;9.680;2023-07-16T02:17:34;3.80;;;3.60;;
297;SDS011;133;49.626;9.680;2023-07-16T02:20:00;3.57;;;3.37;;
297;SDS011;133;49.626;9.680;2023-07-16T02:22:27;8.43;;;3.80;;
297;SDS011;133;49.626;9.680;2023-07-16T02:24:52;3.47;;;3.27;;
297;SDS011;133;49.626;9.680;2023-07-16T02:27:18;4.40;;;4.10;;
297;SDS011;133;49.626;9.680;2023-07-16T02:29:43;4.27;;;4.00;;
297;SDS011;133;49.626;9.680;2023-07-16T02:32:09;3.70;;;3.50;;
297;SDS011;133;49.626;9.680;2023-07-16T02:34:34;4.47;;;3.53;;
297;SDS011;133;49.626;9.680;2023-07-16T02:37:00;3.73;;;3.00;;
297;SDS011;133;49.626;9.680;2023-07-16T02:39:26;3.27;;;3.07;;
297;SDS011;133;49.626;9.680;2023-07-16T02:41:51;5.27;;;3.77;;
297;SDS011;133;49.626;9.680;2023-07-16T02:44:17;4.60;;;3.87;;
297;SDS011;133;49.626;9.680;2023-07-16T02:46:42;6.47;;;3.40;;
297;SDS011;133;49.626;9.680;2023-07-16T02:49:09;3.57;;;3.40;;
297;SDS011;133;49.626;9.680;2023-07-16T02:51:34;3.80;;;3.60;;
297;SDS011;133;49.626;9.680;2023-07-16T02:54:00;4.83;;;3.50;;
297;SDS011;133;49.626;9.680;2023-07-16T02:56:26;9.00;;;3.60;;
297;SDS011;133;49.626;9.680;2023-07-16T02:58:51;4.00;;;3.30;;
297;SDS011;133;49.626;9.680;2023-07-16T03:01:17;4.00;;;3.60;;
297;SDS011;133;49.626;9.680;2023-07-16T03:03:42;4.80;;;3.70;;
297;SDS011;133;49.626;9.680;2023-07-16T03:06:08;4.43;;;3.23;;
297;SDS011;133;49.626;9.680;2023-07-16T03:08:34;5.73;;;3.60;;
297;SDS011;133;49.626;9.680;2023-07-16T03:10:59;8.23;;;3.93;;
297;SDS011;133;49.626;9.680;2023-07-16T03:13:25;3.80;;;3.60;;
297;SDS011;133;49.626;9.680;2023-07-16T03:15:51;5.90;;;3.77;;
297;SDS011;133;49.626;9.680;2023-07-16T03:18:17;5.20;;;3.83;;
297;SDS011;133;49.626;9.680;2023-07-16T03:20:43;3.73;;;3.60;;
297;SDS011;133;49.626;9.680;2023-07-16T03:23:09;3.90;;;3.70;;
297;SDS011;133;49.626;9.680;2023-07-16T03:25:35;5.67;;;3.30;;
297;SDS011;133;49.626;9.680;2023-07-16T03:28:00;3.87;;;3.67;;
297;SDS011;133;49.626;9.680;2023-07-16T03:30:26;4.83;;;3.70;;
297;SDS011;133;49.626;9.680;2023-07-16T03:32:51;5.33;;;3.60;;
297;SDS011;133;49.626;9.680;2023-07-16T03:35:17;6.23;;;4.30;;
297;SDS011;133;49.626;9.680;2023-07-16T03:37:43;6.27;;;3.80;;
297;SDS011;133;49.626;9.680;2023-07-16T03:40:12;7.10;;;4.10;;
297;SDS011;133;49.626;9.680;2023-07-16T03:42:40;8.40;;;4.23;;
297;SDS011;133;49.626;9.680;2023-07-16T03:45:06;4.00;;;3.80;;
297;SDS011;133;49.626;9.680;2023-07-16T03:47:32;7.10;;;3.97;;
297;SDS011;133;49.626;9.680;2023-07-16T03:49:57;11.43;;;4.07;;
297;SDS011;133;49.626;9.680;2023-07-16T03:52:23;6.50;;;3.60;;
297;SDS011;133;49.626;9.680;2023-07-16T03:54:49;8.40;;;3.77;;
297;SDS011;133;49.626;9.680;2023-07-16T03:57:16;4.13;;;3.63;;
297;SDS011;133;49.626;9.680;2023-07-16T03:59:42;9.83;;;3.93;;
297;SDS011;133;49.626;9.680;2023-07-16T04:02:08;6.60;;;3.70;;
297;SDS011;133;49.626;9.680;2023-07-16T04:04:33;8.73;;;4.33;;
297;SDS011;133;49.626;9.680;2023-07-16T04:06:59;5.30;;;3.87;;
297;SDS011;133;49.626;9.680;2023-07-16T04:09:25;7.53;;;4.10;;
297;SDS011;133;49.626;9.680;2023-07-16T04:11:50;10.23;;;4.20;;
297;SDS011;133;49.626;9.680;2023-07-16T04:14:16;13.60;;;3.80;;
297;SDS011;133;49.626;9.680;2023-07-16T04:16:42;6.77;;;4.23;;
297;SDS011;133;49.626;9.680;2023-07-16T04:19:08;5.93;;;3.73;;
297;SDS011;133;49.626;9.680;2023-07-16T04:21:34;10.93;;;4.13;;
297;SDS011;133;49.626;9.680;2023-07-16T04:24:00;9.13;;;4.17;;
297;SDS011;133;49.626;9.680;2023-07-16T04:26:27;4.90;;;3.83;;
297;SDS011;133;49.626;9.680;2023-07-16T04:28:52;9.43;;;4.20;;
297;SDS011;133;49.626;9.680;2023-07-16T04:31:18;10.10;;;3.70;;
297;SDS011;133;49.626;9.680;2023-07-16T04:33:43;5.67;;;3.87;;
297;SDS011;133;49.626;9.680;2023-07-16T04:36:09;7.70;;;3.90;;
297;SDS011;133;49.626;9.680;2023-07-16T04:38:35;7.53;;;3.90;;
297;SDS011;133;49.626;9.680;2023-07-16T04:41:00;7.73;;;3.97;;
297;SDS011;133;49.626;9.680;2023-07-16T04:43:26;5.50;;;3.50;;
297;SDS011;133;49.626;9.680;2023-07-16T04:45:51;3.87;;;3.40;;
297;SDS011;133;49.626;9.680;2023-07-16T04:48:17;11.27;;;3.93;;
297;SDS011;133;49.626;9.680;2023-07-16T04:50:43;11.80;;;3.60;;
297;SDS011;133;49.626;9.680;2023-07-16T04:53:08;7.00;;;3.80;;
297;SDS011;133;49.626;9.680;2023-07-16T04:55:36;11.00;;;3.90;;
297;SDS011;133;49.626;9.680;2023-07-16T04:58:02;9.53;;;3.83;;
297;SDS011;133;49.626;9.680;2023-07-16T05:00:27;8.47;;;3.67;;
297;SDS011;133;49.626;9.680;2023-07-16T05:02:53;9.00;;;3.87;;
297;SDS011;133;49.626;9.680;2023-07-16T05:05:19;4.83;;;3.67;;
297;SDS011;133;49.626;9.680;2023-07-16T05:07:44;5.00;;;3.70;;
297;SDS011;133;49.626;9.680;2023-07-16T05:10:10;5.90;;;3.57;;
297;SDS011;133;49.626;9.680;2023-07-16T05:12:36;7.30;;;3.50;;
297;SDS011;133;49.626;9.680;2023-07-16T05:15:01;7.27;;;4.20;;
297;SDS011;133;49.626;9.680;2023-07-16T05:17:27;8.30;;;3.97;;
297;SDS011;133;49.626;9.680;2023-07-16T05:19:53;6.73;;;3.83;;
297;SDS011;133;49.626;9.680;2023-07-16T05:22:18;6.70;;;3.50;;
297;SDS011;133;49.626;9.680;2023-07-16T05:24:44;8.13;;;3.63;;
297;SDS011;133;49.626;9.680;2023-07-16T05:27:09;17.43;;;3.57;;
297;SDS011;133;49.626;9.680;2023-07-16T05:29:35;5.30;;;3.53;;
297;SDS011;133;49.626;9.680;2023-07-16T05:32:01;6.37;;;3.87;;
297;SDS011;133;49.626;9.680;2023-07-16T05:34:27;5.47;;;3.30;;
297;SDS011;133;49.626;9.680;2023-07-16T05:36:53;5.67;;;4.67;;
297;SDS011;133;49.626;9.680;2023-07-16T05:39:20;12.30;;;4.17;;
297;SDS011;133;49.626;9.680;2023-07-16T05:41:46;8.47;;;3.70;;
297;SDS011;133;49.626;9.680;2023-07-16T05:44:13;9.20;;;3.57;;
297;SDS011;133;49.626;9.680;2023-07-16T05:46:38;11.40;;;3.83;;
297;SDS011;133;49.626;9.680;2023-07-16T05:49:04;10.77;;;3.50;;
297;SDS011;133;49.626;9.680;2023-07-16T05:51:29;9.63;;;3.40;;
297;SDS011;133;49.626;9.680;2023-07-16T05:53:55;8.93;;;3.30;;
297;SDS011;133;49.626;9.680;2023-07-16T05:56:20;4.77;;;3.20;;
297;SDS011;133;49.626;9.680;2023-07-16T05:58:46;7.70;;;3.77;;
297;SDS011;133;49.626;9.680;2023-07-16T06:01:12;9.67;;;3.40;;
297;SDS011;133;49.626;9.680;2023-07-16T06:03:37;5.13;;;3.30;;
297;SDS011;133;49.626;9.680;2023-07-16T06:06:03;13.00;;;3.83;;
297;SDS011;133;49.626;9.680;2023-07-16T06:08:29;7.40;;;3.50;;
297;SDS011;133;49.626;9.680;2023-07-16T06:10:54;7.00;;;3.10;;
297;SDS011;133;49.626;9.680;2023-07-16T06:13:20;10.40;;;3.70;;
297;SDS011;133;49.626;9.680;2023-07-16T06:15:49;10.73;;;3.47;;
297;SDS011;133;49.626;9.680;2023-07-16T06:18:15;7.50;;;3.70;;
297;SDS011;133;49.626;9.680;2023-07-16T06:20:46;10.13;;;3.83;;
297;SDS011;133;49.626;9.680;2023-07-16T06:23:13;8.40;;;3.80;;
297;SDS011;133;49.626;9.680;2023-07-16T06:25:41;5.40;;;3.27;;
297;SDS011;133;49.626;9.680;2023-07-16T06:28:11;4.70;;;3.83;;
297;SDS011;133;49.626;9.680;2023-07-16T06:30:37;8.30;;;3.83;;
297;SDS011;133;49.626;9.680;2023-07-16T06:33:03;8.37;;;3.20;;
297;SDS011;133;49.626;9.680;2023-07-16T06:35:28;9.90;;;4.07;;
297;SDS011;133;49.626;9.680;2023-07-16T06:37:54;5.47;;;3.37;;
297;SDS011;133;49.626;9.680;2023-07-16T06:50:26;6.40;;;3.40;;
297;SDS011;133;49.626;9.680;2023-07-16T06:52:52;5.23;;;3.30;;
297;SDS011;133;49.626;9.680;2023-07-16T06:55:17;8.80;;;4.00;;
297;SDS011;133;49.626;9.680;2023-07-16T06:57:43;6.10;;;3.53;;
297;SDS011;133;49.626;9.680;2023-07-16T07:00:08;8.37;;;3.77;;
297;SDS011;133;49.626;9.680;2023-07-16T07:02:36;6.23;;;3.77;;
297;SDS011;133;49.626;9.680;2023-07-16T07:05:01;6.97;;;3.27;;
297;SDS011;133;49.626;9.680;2023-07-16T07:07:27;10.07;;;3.53;;
297;SDS011;133;49.626;9.680;2023-07-16T07:09:52;6.13;;;3.30;;
297;SDS011;133;49.626;9.680;2023-07-16T07:12:18;9.90;;;3.40;;
297;SDS011;133;49.626;9.680;2023-07-16T07:14:44;5.27;;;3.40;;
297;SDS011;133;49.626;9.680;2023-07-16T07:17:09;5.80;;;3.23;;
297;SDS011;133;49.626;9.680;2023-07-16T07:19:35;5.67;;;3.33;;
297;SDS011;133;49.626;9.680;2023-07-16T07:22:00;5.07;;;3.17;;
297;SDS011;133;49.626;9.680;2023-07-16T07:24:26;4.70;;;3.37;;
297;SDS011;133;49.626;9.680;2023-07-16T07:26:52;5.97;;;3.43;;
297;SDS011;133;49.626;9.680;2023-07-16T07:29:17;6.50;;;3.70;;
297;SDS011;133;49.626;9.680;2023-07-16T07:31:43;7.83;;;3.20;;
297;SDS011;133;49.626;9.680;2023-07-16T07:34:08;8.10;;;3.17;;
297;SDS011;133;49.626;9.680;2023-07-16T07:36:34;5.57;;;3.20;;
297;SDS011;133;49.626;9.680;2023-07-16T07:38:59;6.80;;;3.73;;
297;SDS011;133;49.626;9.680;2023-07-16T07:41:25;5.53;;;3.40;;
297;SDS011;133;49.626;9.680;2023-07-16T07:43:51;7.93;;;3.43;;
297;SDS011;133;49.626;9.680;2023-07-16T07:46:16;7.03;;;3.70;;
297;SDS011;133;49.626;9.680;2023-07-16T07:48:42;5.47;;;3.87;;
297;SDS011;133;49.626;9.680;2023-07-16T07:51:07;9.50;;;3.60;;
297;SDS011;133;49.626;9.680;2023-07-16T07:53:33;4.37;;;2.90;;
297;SDS011;133;49.626;9.680;2023-07-16T07:55:59;11.47;;;3.53;;
297;SDS011;133;49.626;9.680;2023-07-16T07:58:24;6.10;;;3.30;;
297;SDS011;133;49.626;9.680;2023-07-16T08:00:50;8.27;;;3.77;;
297;SDS011;133;49.626;9.680;2023-07-16T08:03:15;10.27;;;3.40;;
297;SDS011;133;49.626;9.680;2023-07-16T08:05:41;7.27;;;3.60;;
297;SDS011;133;49.626;9.680;2023-07-16T08:08:06;6.03;;;3.20;;
297;SDS011;133;49.626;9.680;2023-07-16T08:10:32;8.70;;;3.53;;
297;SDS011;133;49.626;9.680;2023-07-16T08:12:58;7.70;;;3.90;;
297;SDS011;133;49.626;9.680;2023-07-16T08:15:24;5.50;;;3.60;;
297;SDS011;133;49.626;9.680;2023-07-16T08:17:49;7.47;;;3.40;;
297;SDS011;133;49.626;9.680;2023-07-16T08:20:15;7.17;;;3.53;;
297;SDS011;133;49.626;9.680;2023-07-16T08:22:41;5.63;;;3.63;;
297;SDS011;133;49.626;9.680;2023-07-16T08:25:07;9.93;;;4.03;;
297;SDS011;133;49.626;9.680;2023-07-16T08:27:34;6.40;;;3.60;;
297;SDS011;133;49.626;9.680;2023-07-16T08:30:00;7.40;;;3.40;;
297;SDS011;133;49.626;9.680;2023-07-16T08:32:25;5.53;;;3.10;;
297;SDS011;133;49.626;9.680;2023-07-16T08:34:51;6.53;;;3.93;;
297;SDS011;133;49.626;9.680;2023-07-16T08:37:17;8.20;;;3.80;;
297;SDS011;133;49.626;9.680;2023-07-16T08:39:43;7.30;;;4.37;;
297;SDS011;133;49.626;9.680;2023-07-16T08:42:09;8.10;;;3.97;;
297;SDS011;133;49.626;9.680;2023-07-16T08:44:36;7.70;;;3.33;;
297;SDS011;133;49.626;9.680;2023-07-16T08:47:02;5.17;;;3.33;;
297;SDS011;133;49.626;9.680;2023-07-16T08:49:29;4.90;;;3.50;;
297;SDS011;133;49.626;9.680;2023-07-16T08:51:55;5.80;;;2.73;;
297;SDS011;133;49.626;9.680;2023-07-16T08:54:22;14.97;;;3.40;;
297;SDS011;133;49.626;9.680;2023-07-16T08:56:48;10.50;;;3.20;;
297;SDS011;133;49.626;9.680;2023-07-16T08:59:15;5.40;;;3.07;;
297;SDS011;133;49.626;9.680;2023-07-16T09:01:40;7.43;;;2.77;;
297;SDS011;133;49.626;9.680;2023-07-16T09:04:06;4.73;;;3.37;;
297;SDS011;133;49.626;9.680;2023-07-16T09:06:33;4.40;;;3.30;;
297;SDS011;133;49.626;9.680;2023-07-16T09:08:58;3.70;;;2.90;;
297;SDS011;133;49.626;9.680;2023-07-16T09:11:24;5.10;;;3.33;;
297;SDS011;133;49.626;9.680;2023-07-16T09:13:52;4.23;;;2.83;;
297;SDS011;133;49.626;9.680;2023-07-16T09:16:18;4.40;;;2.70;;
297;SDS011;133;49.626;9.680;2023-07-16T09:18:45;5.00;;;2.87;;
297;SDS011;133;49.626;9.680;2023-07-16T09:21:12;6.20;;;3.20;;
297;SDS011;133;49.626;9.680;2023-07-16T09:23:38;5.70;;;3.47;;
297;SDS011;133;49.626;9.680;2023-07-16T09:26:04;7.17;;;3.63;;
297;SDS011;133;49.626;9.680;2023-07-16T09:28:30;9.40;;;3.50;;
297;SDS011;133;49.626;9.680;2023-07-16T09:31:02;4.07;;;3.10;;
297;SDS011;133;49.626;9.680;2023-07-16T09:33:30;4.40;;;2.90;;
297;SDS011;133;49.626;9.680;2023-07-16T09:35:57;8.90;;;3.30;;
297;SDS011;133;49.626;9.680;2023-07-16T09:38:22;3.97;;;3.07;;
297;SDS011;133;49.626;9.680;2023-07-16T09:40:52;5.63;;;3.10;;
297;SDS011;133;49.626;9.680;2023-07-16T09:43:22;4.00;;;3.53;;
297;SDS011;133;49.626;9.680;2023-07-16T09:49:10;3.87;;;2.67;;
297;SDS011;133;49.626;9.680;2023-07-16T09:52:00;7.30;;;3.43;;
297;SDS011;133;49.626;9.680;2023-07-16T09:54:48;4.00;;;2.93;;
297;SDS011;133;49.626;9.680;2023-07-16T09:57:19;5.87;;;3.70;;
297;SDS011;133;49.626;9.680;2023-07-16T10:02:35;6.80;;;3.50;;
297;SDS011;133;49.626;9.680;2023-07-16T10:05:14;6.00;;;3.50;;
297;SDS011;133;49.626;9.680;2023-07-16T10:07:40;7.43;;;3.40;;
297;SDS011;133;49.626;9.680;2023-07-16T10:10:10;4.37;;;3.27;;
297;SDS011;133;49.626;9.680;2023-07-16T10:12:37;4.43;;;3.27;;
297;SDS011;133;49.626;9.680;2023-07-16T10:15:03;5.73;;;3.10;;
297;SDS011;133;49.626;9.680;2023-07-16T10:17:31;10.67;;;3.27;;
297;SDS011;133;49.626;9.680;2023-07-16T10:19:57;8.10;;;3.20;;
297;SDS011;133;49.626;9.680;2023-07-16T10:22:36;4.43;;;3.30;;
297;SDS011;133;49.626;9.680;2023-07-16T10:25:08;7.87;;;3.90;;
297;SDS011;133;49.626;9.680;2023-07-16T10:27:34;5.30;;;3.13;;
297;SDS011;133;49.626;9.680;2023-07-16T10:30:03;4.90;;;3.23;;
297;SDS011;133;49.626;9.680;2023-07-16T10:32:31;10.83;;;3.60;;
297;SDS011;133;49.626;9.680;2023-07-16T10:34:57;9.13;;;3.60;;
297;SDS011;133;49.626;9.680;2023-07-16T10:37:23;5.40;;;3.40;;
297;SDS011;133;49.626;9.680;2023-07-16T10:39:53;8.93;;;3.50;;
297;SDS011;133;49.626;9.680;2023-07-16T10:42:20;5.47;;;3.73;;
297;SDS011;133;49.626;9.680;2023-07-16T10:44:48;3.17;;;2.97;;
297;SDS011;133;49.626;9.680;2023-07-16T10:47:20;5.63;;;3.47;;
297;SDS011;133;49.626;9.680;2023-07-16T10:49:50;5.90;;;3.50;;
297;SDS011;133;49.626;9.680;2023-07-16T10:52:22;5.53;;;3.57;;
297;SDS011;133;49.626;9.680;2023-07-16T10:54:54;6.30;;;3.47;;
297;SDS011;133;49.626;9.680;2023-07-16T10:57:23;6.27;;;3.90;;
297;SDS011;133;49.626;9.680;2023-07-16T10:59:50;8.30;;;3.70;;
297;SDS011;133;49.626;9.680;2023-07-16T11:02:17;9.50;;;3.77;;
297;SDS011;133;49.626;9.680;2023-07-16T11:04:46;7.87;;;3.60;;
297;SDS011;133;49.626;9.680;2023-07-16T11:07:13;4.47;;;3.80;;
297;SDS011;133;49.626;9.680;2023-07-16T11:12:13;6.37;;;3.47;;
297;SDS011;133;49.626;9.680;2023-07-16T11:14:44;5.47;;;3.30;;
297;SDS011;133;49.626;9.680;2023-07-16T11:17:20;5.87;;;4.03;;
297;SDS011;133;49.626;9.680;2023-07-16T11:19:55;3.60;;;3.13;;
297;SDS011;133;49.626;9.680;2023-07-16T11:22:40;7.30;;;3.93;;
297;SDS011;133;49.626;9.680;2023-07-16T11:25:12;4.40;;;3.27;;
297;SDS011;133;49.626;9.680;2023-07-16T11:27:39;6.10;;;3.50;;
297;SDS011;133;49.626;9.680;2023-07-16T11:30:06;6.93;;;3.50;;
297;SDS011;133;49.626;9.680;2023-07-16T11:32:41;5.50;;;3.43;;
297;SDS011;133;49.626;9.680;2023-07-16T11:35:43;3.73;;;3.00;;
297;SDS011;133;49.626;9.680;2023-07-16T11:38:12;3.67;;;3.53;;
297;SDS011;133;49.626;9.680;2023-07-16T11:40:43;3.27;;;3.00;;
297;SDS011;133;49.626;9.680;2023-07-16T11:43:11;7.00;;;3.10;;
297;SDS011;133;49.626;9.680;2023-07-16T11:45:48;3.57;;;3.30;;
297;SDS011;133;49.626;9.680;2023-07-16T11:48:22;3.80;;;2.80;;
297;SDS011;133;49.626;9.680;2023-07-16T11:51:03;5.40;;;3.30;;
297;SDS011;133;49.626;9.680;2023-07-16T11:53:29;7.47;;;3.17;;
297;SDS011;133;49.626;9.680;2023-07-16T11:55:55;7.17;;;3.70;;
297;SDS011;133;49.626;9.680;2023-07-16T11:58:23;5.07;;;2.83;;
297;SDS011;133;49.626;9.680;2023-07-16T12:01:00;3.10;;;3.00;;
297;SDS011;133;49.626;9.680;2023-07-16T12:03:28;6.80;;;3.87;;
297;SDS011;133;49.626;9.680;2023-07-16T12:06:11;3.17;;;3.00;;
297;SDS011;133;49.626;9.680;2023-07-16T12:08:42;9.47;;;3.30;;
297;SDS011;133;49.626;9.680;2023-07-16T12:11:08;6.37;;;3.20;;
297;SDS011;133;49.626;9.680;2023-07-16T12:13:34;6.17;;;3.20;;
297;SDS011;133;49.626;9.680;2023-07-16T12:16:00;4.63;;;3.10;;
297;SDS011;133;49.626;9.680;2023-07-16T12:18:27;5.97;;;3.20;;
297;SDS011;133;49.626;9.680;2023-07-16T12:20:55;6.00;;;3.17;;
297;SDS011;133;49.626;9.680;2023-07-16T12:23:21;4.20;;;3.17;;
297;SDS011;133;49.626;9.680;2023-07-16T12:28:51;7.20;;;3.40;;
297;SDS011;133;49.626;9.680;2023-07-16T12:31:17;5.07;;;3.30;;
297;SDS011;133;49.626;9.680;2023-07-16T12:33:43;3.20;;;3.00;;
297;SDS011;133;49.626;9.680;2023-07-16T12:36:09;4.10;;;3.20;;
297;SDS011;133;49.626;9.680;2023-07-16T12:38:38;6.43;;;3.50;;
297;SDS011;133;49.626;9.680;2023-07-16T12:41:07;5.60;;;3.20;;
297;SDS011;133;49.626;9.680;2023-07-16T12:43:33;5.13;;;3.23;;
297;SDS011;133;49.626;9.680;2023-07-16T12:49:16;5.87;;;2.87;;
297;SDS011;133;49.626;9.680;2023-07-16T12:52:30;3.23;;;3.00;;
297;SDS011;133;49.626;9.680;2023-07-16T12:55:07;6.73;;;3.23;;
297;SDS011;133;49.626;9.680;2023-07-16T12:57:33;7.93;;;3.73;;
297;SDS011;133;49.626;9.680;2023-07-16T13:00:04;6.60;;;3.40;;
297;SDS011;133;49.626;9.680;2023-07-16T13:05:43;3.00;;;2.77;;
297;SDS011;133;49.626;9.680;2023-07-16T13:08:10;4.80;;;3.10;;
297;SDS011;133;49.626;9.680;2023-07-16T13:10:39;4.10;;;3.17;;
297;SDS011;133;49.626;9.680;2023-07-16T13:13:07;7.50;;;3.40;;
297;SDS011;133;49.626;9.680;2023-07-16T13:15:33;4.40;;;3.10;;
297;SDS011;133;49.626;9.680;2023-07-16T13:17:59;10.50;;;3.50;;
297;SDS011;133;49.626;9.680;2023-07-16T13:20:25;7.80;;;3.30;;
297;SDS011;133;49.626;9.680;2023-07-16T13:22:51;6.00;;;3.17;;
297;SDS011;133;49.626;9.680;2023-07-16T13:25:16;6.27;;;3.10;;
297;SDS011;133;49.626;9.680;2023-07-16T13:27:42;3.10;;;2.90;;
297;SDS011;133;49.626;9.680;2023-07-16T13:30:08;8.30;;;3.30;;
297;SDS011;133;49.626;9.680;2023-07-16T13:33:08;4.57;;;3.37;;
297;SDS011;133;49.626;9.680;2023-07-16T13:35:33;4.03;;;3.50;;
297;SDS011;133;49.626;9.680;2023-07-16T13:37:59;4.47;;;3.10;;
297;SDS011;133;49.626;9.680;2023-07-16T13:40:26;3.57;;;3.37;;
297;SDS011;133;49.626;9.680;2023-07-16T13:42:52;5.03;;;4.00;;
297;SDS011;133;49.626;9.680;2023-07-16T13:45:18;5.03;;;3.30;;
297;SDS011;133;49.626;9.680;2023-07-16T13:47:51;4.93;;;3.23;;
297;SDS011;133;49.626;9.680;2023-07-16T13:50:17;5.90;;;3.20;;
297;SDS011;133;49.626;9.680;2023-07-16T13:52:44;3.80;;;3.10;;
297;SDS011;133;49.626;9.680;2023-07-16T13:55:10;4.90;;;3.17;;
297;SDS011;133;49.626;9.680;2023-07-16T13:57:35;5.40;;;3.00;;
297;SDS011;133;49.626;9.680;2023-07-16T14:00:01;13.63;;;4.00;;
297;SDS011;133;49.626;9.680;2023-07-16T14:02:29;3.90;;;3.43;;
297;SDS011;133;49.626;9.680;2023-07-16T14:04:55;4.40;;;3.57;;
297;SDS011;133;49.626;9.680;2023-07-16T14:07:21;10.83;;;3.80;;
297;SDS011;133;49.626;9.680;2023-07-16T14:09:48;4.87;;;4.17;;
297;SDS011;133;49.626;9.680;2023-07-16T14:12:14;3.90;;;3.23;;
297;SDS011;133;49.626;9.680;2023-07-16T14:14:40;4.93;;;3.30;;
297;SDS011;133;49.626;9.680;2023-07-16T14:17:06;5.07;;;3.73;;
297;SDS011;133;49.626;9.680;2023-07-16T14:19:31;4.37;;;3.30;;
297;SDS011;133;49.626;9.680;2023-07-16T14:21:57;5.63;;;4.00;;
297;SDS011;133;49.626;9.680;2023-07-16T14:24:23;8.37;;;3.70;;
297;SDS011;133;49.626;9.680;2023-07-16T14:26:48;7.90;;;3.80;;
297;SDS011;133;49.626;9.680;2023-07-16T14:29:14;5.77;;;3.83;;
297;SDS011;133;49.626;9.680;2023-07-16T14:31:40;4.43;;;3.23;;
297;SDS011;133;49.626;9.680;2023-07-16T14:34:06;5.37;;;3.60;;
297;SDS011;133;49.626;9.680;2023-07-16T14:36:31;4.23;;;3.40;;
297;SDS011;133;49.626;9.680;2023-07-16T14:39:03;4.90;;;3.23;;
297;SDS011;133;49.626;9.680;2023-07-16T14:44:42;4.07;;;3.70;;
297;SDS011;133;49.626;9.680;2023-07-16T14:47:11;5.60;;;3.70;;
297;SDS011;133;49.626;9.680;2023-07-16T14:49:40;5.40;;;3.60;;
297;SDS011;133;49.626;9.680;2023-07-16T14:52:12;4.53;;;3.47;;
297;SDS011;133;49.626;9.680;2023-07-16T14:54:43;4.93;;;3.80;;
297;SDS011;133;49.626;9.680;2023-07-16T14:57:11;3.97;;;3.40;;
297;SDS011;133;49.626;9.680;2023-07-16T14:59:45;5.47;;;3.50;;
297;SDS011;133;49.626;9.680;2023-07-16T15:02:12;6.33;;;3.43;;
297;SDS011;133;49.626;9.680;2023-07-16T15:04:41;4.87;;;3.97;;
297;SDS011;133;49.626;9.680;2023-07-16T15:07:12;4.70;;;3.40;;
297;SDS011;133;49.626;9.680;2023-07-16T15:09:44;4.90;;;3.50;;
297;SDS011;133;49.626;9.680;2023-07-16T15:12:09;3.67;;;3.03;;
297;SDS011;133;49.626;9.680;2023-07-16T15:14:35;6.27;;;3.77;;
297;SDS011;133;49.626;9.680;2023-07-16T15:17:00;8.03;;;4.00;;
297;SDS011;133;49.626;9.680;2023-07-16T15:19:26;4.17;;;3.40;;
297;SDS011;133;49.626;9.680;2023-07-16T15:21:52;5.43;;;3.63;;
297;SDS011;133;49.626;9.680;2023-07-16T15:24:18;5.77;;;4.53;;
297;SDS011;133;49.626;9.680;2023-07-16T15:26:43;6.60;;;3.97;;
297;SDS011;133;49.626;9.680;2023-07-16T15:29:09;3.93;;;3.77;;
297;SDS011;133;49.626;9.680;2023-07-16T15:31:35;4.37;;;3.57;;
297;SDS011;133;49.626;9.680;2023-07-16T15:34:01;5.20;;;3.60;;
297;SDS011;133;49.626;9.680;2023-07-16T15:36:53;5.83;;;3.70;;
297;SDS011;133;49.626;9.680;2023-07-16T15:39:18;6.00;;;4.27;;
297;SDS011;133;49.626;9.680;2023-07-16T15:41:44;5.30;;;4.17;;
297;SDS011;133;49.626;9.680;2023-07-16T15:44:10;7.43;;;4.20;;
297;SDS011;133;49.626;9.680;2023-07-16T15:46:36;5.30;;;3.83;;
297;SDS011;133;49.626;9.680;2023-07-16T15:49:01;5.57;;;3.80;;
297;SDS011;133;49.626;9.680;2023-07-16T15:51:27;7.30;;;4.20;;
297;SDS011;133;49.626;9.680;2023-07-16T15:53:53;3.83;;;3.63;;
297;SDS011;133;49.626;9.680;2023-07-16T15:56:20;6.40;;;4.20;;
297;SDS011;133;49.626;9.680;2023-07-16T15:58:47;9.47;;;4.10;;
297;SDS011;133;49.626;9.680;2023-07-16T16:01:13;8.00;;;3.90;;
297;SDS011;133;49.626;9.680;2023-07-16T16:03:39;4.13;;;3.60;;
297;SDS011;133;49.626;9.680;2023-07-16T16:06:04;5.73;;;4.00;;
297;SDS011;133;49.626;9.680;2023-07-16T16:08:30;4.73;;;3.83;;
297;SDS011;133;49.626;9.680;2023-07-16T16:10:58;7.30;;;4.10;;
297;SDS011;133;49.626;9.680;2023-07-16T16:13:24;6.70;;;3.80;;
297;SDS011;133;49.626;9.680;2023-07-16T16:15:51;7.40;;;3.50;;
297;SDS011;133;49.626;9.680;2023-07-16T16:18:17;4.73;;;3.73;;
297;SDS011;133;49.626;9.680;2023-07-16T16:20:43;6.13;;;3.70;;
297;SDS011;133;49.626;9.680;2023-07-16T16:23:10;4.30;;;4.00;;
297;SDS011;133;49.626;9.680;2023-07-16T16:25:36;4.03;;;3.63;;
297;SDS011;133;49.626;9.680;2023-07-16T16:28:02;6.50;;;4.10;;